Palanca Rio — V7QS4 — position and weather

sailwx.info

Track history (hours):
 
Tides and Currents Weather Stations Pressure Air Temp Water Temp Dewpoint Dewpoint Depression Visibility Wind Speed Wind Dir Waves Ship Positions

Palanca Rio

Last reported at 2018-Aug-14 07:11 UTC. Time now 2018-Aug-14 13:46 UTC.
Position N 43°55' W 068°41'.

Length 133 m; draft 5.7 m.

Type: Ship. MMSI: 538006907.

Date/timePositionNaut miles runAvg speedWind from/ knotsBaromVisibWave heightAir tempDewpointWater temp
2018-Aug-14 07:11N 43°55' W 068°41'312.4
2018-Aug-14 06:58N 43°56' W 068°44'612.0
2018-Aug-14 06:30N 43°56' W 068°52'510.9
2018-Aug-14 06:00N 43°59' W 068°58'612.4
2018-Aug-14 05:30N 44°05' W 069°01'713.3
2018-Aug-14 05:00N 44°12' W 069°00'713.0
2018-Aug-14 04:30N 44°18' W 068°57'612.6
2018-Aug-14 04:00N 44°24' W 068°55'3 0.2
2018-Aug-13 13:26N 44°27' W 068°54'7 7.2
2018-Aug-13 12:31N 44°21' W 068°56'012.5
2018-Aug-13 12:30N 44°21' W 068°56'612.2
2018-Aug-13 12:00N 44°15' W 068°59'612.0
2018-Aug-13 11:30N 44°09' W 069°01'611.7
2018-Aug-13 11:00N 44°03' W 069°01'510.3
2018-Aug-13 10:30N 43°59' W 068°57'510.1
2018-Aug-13 10:00N 43°56' W 068°51'611.2
2018-Aug-13 09:29N 43°56' W 068°43'40610.1
2018-Aug-11 17:22N 38°46' W 074°32'1012.7
2018-Aug-11 16:37N 38°45' W 074°44'112.8
2018-Aug-11 16:30N 38°46' W 074°46'912.7
2018-Aug-11 15:50N 38°46' W 074°57'2210.9
2018-Aug-11 13:48N 39°05' W 075°11'310.4
2018-Aug-11 13:30N 39°08' W 075°14'5 9.9
2018-Aug-11 13:00N 39°12' W 075°17'5 9.5
2018-Aug-11 12:30N 39°16' W 075°20'510.2
2018-Aug-11 12:00N 39°20' W 075°25'611.3
2018-Aug-11 11:30N 39°24' W 075°30'612.1
2018-Aug-11 10:59N 39°29' W 075°34'4 8.9
2018-Aug-11 10:30N 39°33' W 075°35'611.2
2018-Aug-11 10:00N 39°33' W 075°43'5 9.7
2018-Aug-11 09:30N 39°32' W 075°49'4 7.1
2018-Aug-11 09:00N 39°31' W 075°53'510.8
2018-Aug-11 08:30N 39°28' W 075°59'611.1
2018-Aug-11 08:00N 39°24' W 076°04'611.3
2018-Aug-11 07:30N 39°21' W 076°10'510.6
2018-Aug-11 07:00N 39°16' W 076°14'510.7
2018-Aug-11 06:30N 39°11' W 076°16'5 9.6
2018-Aug-11 05:58N 39°10' W 076°23'510.9
2018-Aug-11 05:30N 39°11' W 076°29'4 8.8
2018-Aug-11 05:00N 39°13' W 076°34'1 0.6
2018-Aug-11 03:10N 39°13' W 076°35'0 0.0
2018-Aug-11 02:52N 39°13' W 076°35'0 0.0
2018-Aug-11 02:22N 39°13' W 076°35'0 0.0
2018-Aug-11 01:52N 39°13' W 076°35'0 0.0
2018-Aug-11 00:46N 39°13' W 076°35'0 0.0
2018-Aug-11 00:28N 39°13' W 076°35'0 0.0
2018-Aug-10 23:40N 39°13' W 076°35'0 0.0
2018-Aug-10 23:28N 39°13' W 076°35'0 0.0
2018-Aug-10 22:58N 39°13' W 076°35'0 0.0
2018-Aug-10 22:28N 39°13' W 076°35'0 0.0
2018-Aug-10 21:55N 39°13' W 076°35'0 0.0
2018-Aug-10 21:19N 39°13' W 076°35'0 0.0
2018-Aug-10 20:34N 39°13' W 076°35'0 0.1
2018-Aug-10 20:28N 39°13' W 076°35'0 0.0
2018-Aug-10 19:55N 39°13' W 076°35'0 0.0
2018-Aug-10 13:19N 39°13' W 076°35'0 0.8
2018-Aug-10 13:00N 39°13' W 076°35'2 4.9
2018-Aug-10 12:30N 39°13' W 076°31'5 9.9
2018-Aug-10 12:01N 39°10' W 076°26'510.9
2018-Aug-10 11:30N 39°05' W 076°24'510.8
2018-Aug-10 11:00N 38°60' W 076°23'611.4
2018-Aug-10 10:30N 38°54' W 076°24'611.7
2018-Aug-10 10:00N 38°48' W 076°25'611.4
2018-Aug-10 09:30N 38°43' W 076°26'611.4
2018-Aug-10 09:00N 38°37' W 076°25'611.1
2018-Aug-10 08:31N 38°31' W 076°25'611.6
2018-Aug-10 08:00N 38°26' W 076°22'611.8
2018-Aug-10 07:30N 38°21' W 076°19'611.9
2018-Aug-10 07:00N 38°15' W 076°16'611.9
2018-Aug-10 06:30N 38°10' W 076°14'612.2
2018-Aug-10 05:59N 38°03' W 076°13'611.9
2018-Aug-10 05:30N 37°58' W 076°11'612.0
2018-Aug-10 04:59N 37°52' W 076°10'612.3
2018-Aug-10 04:30N 37°46' W 076°11'1211.2
2018-Aug-10 03:24N 37°35' W 076°04'511.1
2018-Aug-10 02:55N 37°29' W 076°04'  
2018-Aug-07 19:22N 43°38' W 067°20'411.3
2018-Aug-07 19:00N 43°41' W 067°17'  
Track history (hours):
 
Tides and Currents Weather Stations Pressure Air Temp Water Temp Dewpoint Dewpoint Depression Visibility Wind Speed Wind Dir Waves Ship Positions

Palanca Rio

Last reported at 2018-Aug-14 07:11 UTC. Time now 2018-Aug-14 13:46 UTC.
Position N 43°55' W 068°41'.

Length 133 m; draft 5.7 m.

Type: Ship. MMSI: 538006907.

Date/timePositionNaut miles runAvg speedWind from/ knotsBaromVisibWave heightAir tempDewpointWater temp
2018-Aug-14 07:11N 43°55' W 068°41'312.4
2018-Aug-14 06:58N 43°56' W 068°44'612.0
2018-Aug-14 06:30N 43°56' W 068°52'510.9
2018-Aug-14 06:00N 43°59' W 068°58'612.4
2018-Aug-14 05:30N 44°05' W 069°01'713.3
2018-Aug-14 05:00N 44°12' W 069°00'713.0
2018-Aug-14 04:30N 44°18' W 068°57'612.6
2018-Aug-14 04:00N 44°24' W 068°55'3 0.2
2018-Aug-13 13:26N 44°27' W 068°54'7 7.2
2018-Aug-13 12:31N 44°21' W 068°56'012.5
2018-Aug-13 12:30N 44°21' W 068°56'612.2
2018-Aug-13 12:00N 44°15' W 068°59'612.0
2018-Aug-13 11:30N 44°09' W 069°01'611.7
2018-Aug-13 11:00N 44°03' W 069°01'510.3
2018-Aug-13 10:30N 43°59' W 068°57'510.1
2018-Aug-13 10:00N 43°56' W 068°51'611.2
2018-Aug-13 09:29N 43°56' W 068°43'40610.1
2018-Aug-11 17:22N 38°46' W 074°32'1012.7
2018-Aug-11 16:37N 38°45' W 074°44'112.8
2018-Aug-11 16:30N 38°46' W 074°46'912.7
2018-Aug-11 15:50N 38°46' W 074°57'2210.9
2018-Aug-11 13:48N 39°05' W 075°11'310.4
2018-Aug-11 13:30N 39°08' W 075°14'5 9.9
2018-Aug-11 13:00N 39°12' W 075°17'5 9.5
2018-Aug-11 12:30N 39°16' W 075°20'510.2
2018-Aug-11 12:00N 39°20' W 075°25'611.3
2018-Aug-11 11:30N 39°24' W 075°30'612.1
2018-Aug-11 10:59N 39°29' W 075°34'4 8.9
2018-Aug-11 10:30N 39°33' W 075°35'611.2
2018-Aug-11 10:00N 39°33' W 075°43'5 9.7
2018-Aug-11 09:30N 39°32' W 075°49'4 7.1
2018-Aug-11 09:00N 39°31' W 075°53'510.8
2018-Aug-11 08:30N 39°28' W 075°59'611.1
2018-Aug-11 08:00N 39°24' W 076°04'611.3
2018-Aug-11 07:30N 39°21' W 076°10'510.6
2018-Aug-11 07:00N 39°16' W 076°14'510.7
2018-Aug-11 06:30N 39°11' W 076°16'5 9.6
2018-Aug-11 05:58N 39°10' W 076°23'510.9
2018-Aug-11 05:30N 39°11' W 076°29'4 8.8
2018-Aug-11 05:00N 39°13' W 076°34'1 0.6
2018-Aug-11 03:10N 39°13' W 076°35'0 0.0
2018-Aug-11 02:52N 39°13' W 076°35'0 0.0
2018-Aug-11 02:22N 39°13' W 076°35'0 0.0
2018-Aug-11 01:52N 39°13' W 076°35'0 0.0
2018-Aug-11 00:46N 39°13' W 076°35'0 0.0
2018-Aug-11 00:28N 39°13' W 076°35'0 0.0
2018-Aug-10 23:40N 39°13' W 076°35'0 0.0
2018-Aug-10 23:28N 39°13' W 076°35'0 0.0
2018-Aug-10 22:58N 39°13' W 076°35'0 0.0
2018-Aug-10 22:28N 39°13' W 076°35'0 0.0
2018-Aug-10 21:55N 39°13' W 076°35'0 0.0
2018-Aug-10 21:19N 39°13' W 076°35'0 0.0
2018-Aug-10 20:34N 39°13' W 076°35'0 0.1
2018-Aug-10 20:28N 39°13' W 076°35'0 0.0
2018-Aug-10 19:55N 39°13' W 076°35'0 0.0
2018-Aug-10 13:19N 39°13' W 076°35'0 0.8
2018-Aug-10 13:00N 39°13' W 076°35'2 4.9
2018-Aug-10 12:30N 39°13' W 076°31'5 9.9
2018-Aug-10 12:01N 39°10' W 076°26'510.9
2018-Aug-10 11:30N 39°05' W 076°24'510.8
2018-Aug-10 11:00N 38°60' W 076°23'611.4
2018-Aug-10 10:30N 38°54' W 076°24'611.7
2018-Aug-10 10:00N 38°48' W 076°25'611.4
2018-Aug-10 09:30N 38°43' W 076°26'611.4
2018-Aug-10 09:00N 38°37' W 076°25'611.1
2018-Aug-10 08:31N 38°31' W 076°25'611.6
2018-Aug-10 08:00N 38°26' W 076°22'611.8
2018-Aug-10 07:30N 38°21' W 076°19'611.9
2018-Aug-10 07:00N 38°15' W 076°16'611.9
2018-Aug-10 06:30N 38°10' W 076°14'612.2
2018-Aug-10 05:59N 38°03' W 076°13'611.9
2018-Aug-10 05:30N 37°58' W 076°11'612.0
2018-Aug-10 04:59N 37°52' W 076°10'612.3
2018-Aug-10 04:30N 37°46' W 076°11'1211.2
2018-Aug-10 03:24N 37°35' W 076°04'511.1
2018-Aug-10 02:55N 37°29' W 076°04'  
2018-Aug-07 19:22N 43°38' W 067°20'411.3
2018-Aug-07 19:00N 43°41' W 067°17'  

Dump ship's entire track history